Jonesville, Virginia
Current Conditions -  °F | °C
As of 1:55 PM on Friday 21 Nov 2014 (Local Time) from K0VG Reporting Station
Clear Clear  
Wind Chill: 43°   Ceiling: Unl
Heat Index: 43°   Visibility: 10mi
Dew Point:   Wind: 3mph
Humidity: 23%   Direction: 160°SSE
Pressure: 30.45"   Gusts: NA
Location:  36.69°N, 83.11°W
Report Text: K0VG 211855Z AUTO 16003KT 10SM CLR 06/M14 A3045 RMK AO2
Loading
Personal Weather Stations






























Interactive Weather Map New forecast layout! Learn more

10-Day Weather Forecast

Advertisements
Track Severe Weather on mobile